Time;durP1;ratioP1;P1;durP2;ratioP2;P2;SDS_P1;SDS_P2;PMS_P1;PMS_P2;Temp;Humidity;BMP_temperature;BMP_pressure;BME280_temperature;BME280_humidity;BME280_pressure;Samples;Min_cycle;Max_cycle;Signal;HPM_P1;HPM_P2
2024/02/22 00:01:48;;;;;;;1999.90;999.90;;;;;;;9.74;100.00;99824.47;10215388;29;20131;-66
2024/02/22 00:06:50;;;;;;;1999.90;999.90;;;;;;;9.69;100.00;99808.25;10215227;29;20086;-66
2024/02/22 00:11:53;;;;;;;1999.90;999.90;;;;;;;9.73;100.00;99811.50;10213433;29;20063;-66
2024/02/22 00:16:55;;;;;;;1999.90;999.90;;;;;;;9.67;100.00;99812.75;10214899;29;20052;-66
2024/02/22 00:21:59;;;;;;;1999.90;999.90;;;;;;;9.97;100.00;99795.84;10214894;29;20052;-66
2024/02/22 00:27:01;;;;;;;1999.90;999.90;;;;;;;9.69;100.00;99783.91;10213578;29;20066;-66
2024/02/22 00:32:04;;;;;;;1999.90;999.90;;;;;;;9.86;100.00;99787.00;10214676;29;20051;-67
2024/02/22 00:37:06;;;;;;;1999.90;999.90;;;;;;;9.99;100.00;99771.28;10214483;29;20048;-66
2024/02/22 00:42:09;;;;;;;1999.90;999.90;;;;;;;9.93;100.00;99757.81;10214662;29;20132;-66
2024/02/22 00:47:11;;;;;;;1999.90;999.90;;;;;;;10.00;100.00;99751.19;10214338;29;20058;-66
2024/02/22 00:52:14;;;;;;;1999.90;999.90;;;;;;;9.98;100.00;99748.69;10214330;29;20114;-66
2024/02/22 00:57:16;;;;;;;1999.90;999.90;;;;;;;9.98;100.00;99738.22;10215613;29;20048;-66
2024/02/22 01:02:18;;;;;;;1999.90;999.90;;;;;;;10.10;100.00;99738.28;10220796;29;20111;-66
2024/02/22 01:07:21;;;;;;;1999.90;999.90;;;;;;;10.00;100.00;99720.66;10220009;29;20055;-66
2024/02/22 01:12:24;;;;;;;1999.90;999.90;;;;;;;10.00;100.00;99725.03;10220797;29;20165;-66
2024/02/22 01:17:26;;;;;;;1999.90;999.90;;;;;;;10.00;100.00;99718.03;10219519;29;20044;-66
2024/02/22 01:22:28;;;;;;;1999.90;999.90;;;;;;;10.15;100.00;99702.16;10219395;29;20055;-66
2024/02/22 01:27:31;;;;;;;1999.90;999.90;;;;;;;10.24;100.00;99709.34;10220362;29;20058;-66
2024/02/22 01:32:33;;;;;;;1999.90;999.90;;;;;;;10.25;100.00;99695.31;10219683;29;20051;-66
2024/02/22 01:37:36;;;;;;;1999.90;999.90;;;;;;;10.30;100.00;99687.13;10220014;29;20075;-66
2024/02/22 01:42:41;;;;;;;1999.90;999.90;;;;;;;10.26;100.00;99688.31;10220484;29;20054;-66
2024/02/22 01:47:44;;;;;;;1999.90;999.90;;;;;;;10.33;100.00;99673.88;10220270;29;20058;-66
2024/02/22 01:52:46;;;;;;;1999.90;999.90;;;;;;;10.44;100.00;99668.69;10220093;29;20052;-66
2024/02/22 01:57:50;;;;;;;1999.90;999.90;;;;;;;10.27;100.00;99671.66;10218794;29;20107;-66
2024/02/22 02:02:53;;;;;;;1999.90;999.90;;;;;;;10.55;100.00;99665.25;10218591;29;20066;-66
2024/02/22 02:07:56;;;;;;;1999.90;999.90;;;;;;;10.34;100.00;99649.34;10218687;29;20080;-66
2024/02/22 02:13:07;;;;;;;1999.90;999.90;;;;;;;10.54;100.00;99640.00;10219434;29;20090;-66
2024/02/22 02:18:10;;;;;;;1999.90;999.90;;;;;;;10.53;100.00;99631.31;10217392;29;20502;-66
2024/02/22 02:23:17;;;;;;;1999.90;999.90;;;;;;;10.57;100.00;99632.78;10217157;29;20612;-66
2024/02/22 02:28:19;;;;;;;1999.90;999.90;;;;;;;10.40;100.00;99627.97;10216996;29;20496;-66
2024/02/22 02:33:21;;;;;;;1999.90;999.90;;;;;;;10.47;100.00;99623.09;10218519;29;20062;-67
2024/02/22 02:38:24;;;;;;;1999.90;999.90;;;;;;;10.35;100.00;99617.00;10218372;29;20086;-67
2024/02/22 02:43:27;;;;;;;1999.90;999.90;;;;;;;10.52;100.00;99610.50;10217769;29;20051;-66
2024/02/22 02:48:29;;;;;;;1999.90;999.90;;;;;;;10.52;100.00;99603.50;10216804;29;20083;-67
2024/02/22 02:53:31;;;;;;;1999.90;999.90;;;;;;;10.49;100.00;99608.97;10217103;29;20420;-66
2024/02/22 02:58:34;;;;;;;1999.90;999.90;;;;;;;10.65;100.00;99597.31;10217627;29;20085;-66
2024/02/22 03:03:36;;;;;;;1999.90;999.90;;;;;;;10.78;100.00;99595.44;10216775;29;20075;-66
2024/02/22 03:08:38;;;;;;;1999.90;999.90;;;;;;;10.73;100.00;99595.78;10216523;29;20416;-66
2024/02/22 03:13:41;;;;;;;1999.90;999.90;;;;;;;10.66;100.00;99601.59;10217002;29;20055;-67
2024/02/22 03:18:43;;;;;;;1999.90;999.90;;;;;;;10.78;100.00;99587.56;10216789;29;20060;-66
2024/02/22 03:23:46;;;;;;;1999.90;999.90;;;;;;;10.76;100.00;99586.88;10214828;29;20127;-66
2024/02/22 03:28:50;;;;;;;1999.90;999.90;;;;;;;10.83;100.00;99582.81;10215465;29;20060;-67
2024/02/22 03:33:52;;;;;;;1999.90;999.90;;;;;;;10.95;100.00;99574.00;10215100;29;20122;-67
2024/02/22 03:38:55;;;;;;;1999.90;999.90;;;;;;;10.99;100.00;99569.34;10215576;29;20456;-67
2024/02/22 03:43:57;;;;;;;1999.90;999.90;;;;;;;10.90;100.00;99564.84;10215366;29;20406;-67
2024/02/22 03:48:59;;;;;;;1999.90;999.90;;;;;;;10.78;100.00;99564.84;10215782;29;20111;-67
2024/02/22 03:54:02;;;;;;;1999.90;999.90;;;;;;;10.87;100.00;99547.56;10215581;29;20138;-66
2024/02/22 03:59:06;;;;;;;1999.90;999.90;;;;;;;10.68;100.00;99550.81;10215483;29;20059;-66
2024/02/22 04:04:09;;;;;;;1999.90;999.90;;;;;;;10.88;100.00;99538.78;10214224;29;20054;-66
2024/02/22 04:09:11;;;;;;;1999.90;999.90;;;;;;;10.71;100.00;99536.66;10214836;29;20102;-66
2024/02/22 04:14:14;;;;;;;1999.90;999.90;;;;;;;10.80;100.00;99512.34;10214980;29;20052;-67
2024/02/22 04:19:16;;;;;;;1999.90;999.90;;;;;;;10.74;100.00;99502.34;10214949;29;20056;-67
2024/02/22 04:24:21;;;;;;;1999.90;999.90;;;;;;;11.03;100.00;99507.06;10214144;29;20052;-67
2024/02/22 04:29:23;;;;;;;1999.90;999.90;;;;;;;10.84;100.00;99502.47;10214139;29;20051;-67
2024/02/22 04:34:26;;;;;;;1999.90;999.90;;;;;;;10.79;100.00;99487.13;10224721;29;20044;-67
2024/02/22 04:39:28;;;;;;;1999.90;999.90;;;;;;;10.72;100.00;99488.56;10227776;29;20127;-67
2024/02/22 04:44:30;;;;;;;1999.90;999.90;;;;;;;10.69;100.00;99479.19;10227632;29;20123;-67
2024/02/22 04:49:34;;;;;;;1999.90;999.90;;;;;;;10.86;100.00;99488.31;10227105;29;20542;-67
2024/02/22 04:54:36;;;;;;;1999.90;999.90;;;;;;;10.74;100.00;99491.88;10226202;29;20131;-67
2024/02/22 04:59:46;;;;;;;1999.90;999.90;;;;;;;10.57;100.00;99475.75;10227387;29;20059;-67
2024/02/22 05:04:48;;;;;;;1999.90;999.90;;;;;;;10.61;100.00;99473.72;10227225;29;20118;-66
2024/02/22 05:09:50;;;;;;;1999.90;999.90;;;;;;;10.59;100.00;99465.97;10225561;29;20099;-66
2024/02/22 05:14:53;;;;;;;1999.90;999.90;;;;;;;10.56;100.00;99460.97;10226978;29;20058;-67
2024/02/22 05:19:55;;;;;;;1999.90;999.90;;;;;;;10.70;100.00;99457.28;10227018;29;20126;-67
2024/02/22 05:24:57;;;;;;;1999.90;999.90;;;;;;;10.68;100.00;99450.50;10226912;29;20051;-67
2024/02/22 05:30:00;;;;;;;1999.90;999.90;;;;;;;10.77;100.00;99434.88;10226867;29;20062;-67
2024/02/22 05:35:03;;;;;;;1999.90;999.90;;;;;;;10.34;100.00;99427.81;10226684;29;20051;-67
2024/02/22 05:40:08;;;;;;;1999.90;999.90;;;;;;;10.39;100.00;99422.25;10226707;29;20051;-66
2024/02/22 05:45:10;;;;;;;1999.90;999.90;;;;;;;10.56;100.00;99428.75;10219743;29;20079;-67
2024/02/22 05:50:12;;;;;;;1999.90;999.90;;;;;;;10.55;100.00;99429.69;10219657;29;20503;-66
2024/02/22 05:55:15;;;;;;;1999.90;999.90;;;;;;;10.38;100.00;99431.84;10219958;29;20076;-66
2024/02/22 06:00:18;;;;;;;1999.90;999.90;;;;;;;10.30;100.00;99431.59;10219281;29;20051;-67
2024/02/22 06:05:20;;;;;;;1999.90;999.90;;;;;;;10.47;100.00;99419.00;10219035;29;20479;-67
2024/02/22 06:10:23;;;;;;;1999.90;999.90;;;;;;;10.36;100.00;99422.47;10218957;29;20070;-66
2024/02/22 06:15:25;;;;;;;1999.90;999.90;;;;;;;10.40;100.00;99414.25;10218619;29;20376;-66
2024/02/22 06:20:28;;;;;;;1999.90;999.90;;;;;;;10.32;100.00;99408.81;10218510;29;20052;-66
2024/02/22 06:25:30;;;;;;;1999.90;999.90;;;;;;;10.43;100.00;99391.44;10226002;23;20415;-67
2024/02/22 06:30:33;;;;;;;1999.90;999.90;;;;;;;10.12;100.00;99386.78;10217079;29;20055;-67
2024/02/22 06:35:35;;;;;;;1999.90;999.90;;;;;;;10.33;100.00;99367.78;10217923;29;20487;-67
2024/02/22 06:40:48;;;;;;;1999.90;999.90;;;;;;;10.20;100.00;99366.09;10218391;29;20052;-67
2024/02/22 06:45:50;;;;;;;1999.90;999.90;;;;;;;9.98;100.00;99368.72;10217663;29;20480;-67
2024/02/22 06:50:54;;;;;;;1999.90;999.90;;;;;;;9.94;100.00;99362.06;10217456;29;20406;-67
2024/02/22 06:55:57;;;;;;;1999.90;999.90;;;;;;;10.11;100.00;99372.03;10217423;29;20048;-67
2024/02/22 07:00:59;;;;;;;1999.90;999.90;;;;;;;9.96;100.00;99358.38;10217009;29;20119;-67
2024/02/22 07:06:02;;;;;;;1999.90;999.90;;;;;;;9.91;100.00;99355.28;10216766;29;20048;-68
2024/02/22 07:11:04;;;;;;;1999.90;999.90;;;;;;;9.88;100.00;99349.47;10216637;29;20131;-67
2024/02/22 07:16:07;;;;;;;1999.90;999.90;;;;;;;10.16;100.00;99350.75;10216952;29;20048;-67
2024/02/22 07:21:10;;;;;;;1999.90;999.90;;;;;;;10.11;100.00;99335.44;10216850;29;20062;-68
2024/02/22 07:26:12;;;;;;;1999.90;999.90;;;;;;;10.21;100.00;99333.75;10215834;29;20131;-68
2024/02/22 07:31:15;;;;;;;1999.90;999.90;;;;;;;9.94;100.00;99304.56;10215279;29;20060;-67
2024/02/22 07:36:17;;;;;;;1999.90;999.90;;;;;;;10.22;100.00;99306.66;10215072;29;20050;-67
2024/02/22 07:41:20;;;;;;;1999.90;999.90;;;;;;;10.47;100.00;99296.84;10215682;29;20146;-67
2024/02/22 07:46:22;;;;;;;1999.90;999.90;;;;;;;10.16;100.00;99288.81;10216118;29;20123;-67
2024/02/22 07:51:24;;;;;;;1999.90;999.90;;;;;;;10.26;100.00;99282.88;10215173;29;20491;-67
2024/02/22 07:56:27;;;;;;;1999.90;999.90;;;;;;;10.22;100.00;99287.47;10215743;29;20080;-67
2024/02/22 08:01:29;;;;;;;1999.90;999.90;;;;;;;10.27;100.00;99280.13;10215655;29;20060;-67
2024/02/22 08:06:32;;;;;;;1999.90;999.90;;;;;;;10.28;100.00;99268.69;10213493;29;20048;-67
2024/02/22 08:11:34;;;;;;;1999.90;999.90;;;;;;;10.24;100.00;99254.22;10214612;29;20055;-67
2024/02/22 08:16:37;;;;;;;1999.90;999.90;;;;;;;10.64;100.00;99240.53;10214509;29;20126;-68
2024/02/22 08:21:39;;;;;;;1999.90;999.90;;;;;;;10.47;100.00;99228.00;10213221;29;20051;-68
2024/02/22 08:26:42;;;;;;;1999.90;999.90;;;;;;;10.41;100.00;99216.25;10214070;29;20519;-68
2024/02/22 08:31:46;;;;;;;1999.90;999.90;;;;;;;10.58;100.00;99186.91;10214774;29;20062;-68
2024/02/22 08:36:48;;;;;;;1999.90;999.90;;;;;;;10.41;100.00;99162.13;10213971;29;20087;-68
2024/02/22 08:41:51;;;;;;;1999.90;999.90;;;;;;;10.95;100.00;99149.75;10213981;29;20402;-68
2024/02/22 08:46:54;;;;;;;1999.90;999.90;;;;;;;11.03;100.00;99135.19;10214508;29;20052;-68
2024/02/22 08:51:56;;;;;;;1999.90;999.90;;;;;;;11.03;100.00;99115.06;10213728;29;20539;-68
2024/02/22 08:56:58;;;;;;;1999.90;999.90;;;;;;;10.92;100.00;99109.94;10212386;29;20510;-68
2024/02/22 09:02:01;;;;;;;1999.90;999.90;;;;;;;10.86;100.00;99105.22;10214213;29;20079;-68
2024/02/22 09:07:03;;;;;;;1999.90;999.90;;;;;;;11.43;100.00;99101.13;10214041;29;20055;-68
2024/02/22 09:12:06;;;;;;;1999.90;999.90;;;;;;;11.07;100.00;99103.38;10214011;29;20090;-68
2024/02/22 09:17:09;;;;;;;1999.90;999.90;;;;;;;11.26;100.00;99096.53;10213047;29;20095;-68
2024/02/22 09:22:12;;;;;;;1999.90;999.90;;;;;;;11.24;100.00;99082.75;10219429;29;20495;-68
2024/02/22 09:27:15;;;;;;;1999.90;999.90;;;;;;;11.63;100.00;99070.53;10220211;29;20055;-68
2024/02/22 09:32:17;;;;;;;1999.90;999.90;;;;;;;11.26;100.00;99055.47;10219532;29;20094;-68
2024/02/22 09:37:20;;;;;;;1999.90;999.90;;;;;;;11.25;100.00;99032.84;10219932;29;20488;-68
2024/02/22 09:42:26;;;;;;;1999.90;999.90;;;;;;;11.33;100.00;99013.78;10220656;29;20127;-68
2024/02/22 09:47:30;;;;;;;1999.90;999.90;;;;;;;10.80;100.00;99008.88;10219869;29;20522;-68
2024/02/22 09:52:34;;;;;;;1999.90;999.90;;;;;;;11.09;100.00;98970.47;10219034;29;20052;-68
2024/02/22 09:57:36;;;;;;;1999.90;999.90;;;;;;;10.87;100.00;98968.13;10218830;29;20052;-68
2024/02/22 10:02:45;;;;;;;1999.90;999.90;;;;;;;11.02;100.00;98948.44;10219274;29;20487;-68
2024/02/22 10:07:48;;;;;;;1999.90;999.90;;;;;;;11.05;100.00;98910.69;10217541;29;20050;-68
2024/02/22 10:12:52;;;;;;;1999.90;999.90;;;;;;;11.34;100.00;98903.63;10219063;29;20051;-68
2024/02/22 10:17:56;;;;;;;1999.90;999.90;;;;;;;11.12;100.00;98902.13;10219237;29;20077;-68
2024/02/22 10:23:06;;;;;;;1999.90;999.90;;;;;;;11.23;100.00;98900.31;10217201;29;20059;-68
2024/02/22 10:28:14;;;;;;;1999.90;999.90;;;;;;;11.41;100.00;98900.47;10218932;29;20056;-68
2024/02/22 10:33:18;;;;;;;1999.90;999.90;;;;;;;11.63;100.00;98878.34;10216379;29;20406;-68
2024/02/22 10:38:21;;;;;;;1999.90;999.90;;;;;;;11.18;100.00;98885.03;10218470;29;20043;-68
2024/02/22 10:43:24;;;;;;;1999.90;999.90;;;;;;;11.39;100.00;98876.19;10217277;29;20055;-68
2024/02/22 10:48:34;;;;;;;1999.90;999.90;;;;;;;11.38;100.00;98872.75;10218189;29;20122;-68
2024/02/22 10:53:37;;;;;;;1999.90;999.90;;;;;;;11.51;100.00;98854.91;10216332;29;20419;-68
2024/02/22 10:58:40;;;;;;;1999.90;999.90;;;;;;;11.00;100.00;98850.84;10215960;29;20127;-68
2024/02/22 11:03:44;;;;;;;1999.90;999.90;;;;;;;11.46;100.00;98817.81;10215843;29;20051;-68
2024/02/22 11:08:50;;;;;;;1999.90;999.90;;;;;;;11.44;100.00;98795.38;10217389;29;20047;-68
2024/02/22 11:14:13;;;;;;;1999.90;999.90;;;;;;;11.68;100.00;98755.53;10216009;29;20135;-68
2024/02/22 11:19:24;;;;;;;1999.90;999.90;;;;;;;11.66;100.00;98744.38;10216346;29;20488;-68
2024/02/22 11:24:27;;;;;;;1999.90;999.90;;;;;;;11.97;100.00;98716.09;10214945;29;20562;-68
2024/02/22 11:29:33;;;;;;;1999.90;999.90;;;;;;;12.13;100.00;98720.69;10215956;29;20047;-68
2024/02/22 11:34:35;;;;;;;1999.90;999.90;;;;;;;11.88;100.00;98709.06;10216457;29;20062;-68
2024/02/22 11:39:38;;;;;;;1999.90;999.90;;;;;;;11.92;100.00;98697.38;10215799;29;20389;-68
2024/02/22 11:44:44;;;;;;;1999.90;999.90;;;;;;;11.97;100.00;98678.53;10215215;29;20051;-68
2024/02/22 11:49:46;;;;;;;1999.90;999.90;;;;;;;12.03;100.00;98665.66;10216117;29;20160;-68
2024/02/22 11:54:51;;;;;;;1999.90;999.90;;;;;;;11.97;100.00;98637.44;10215641;29;20102;-68
2024/02/22 11:59:53;;;;;;;1999.90;999.90;;;;;;;11.98;100.00;98620.69;10215650;29;20135;-68
2024/02/22 12:04:55;;;;;;;1999.90;999.90;;;;;;;11.81;100.00;98611.00;10214313;29;20055;-68
2024/02/22 12:09:58;;;;;;;1999.90;999.90;;;;;;;11.89;100.00;98572.59;10214185;29;20051;-68
2024/02/22 12:15:04;;;;;;;1999.90;999.90;;;;;;;11.69;100.00;98553.56;10213292;29;20047;-68
2024/02/22 12:20:12;;;;;;;1999.90;999.90;;;;;;;11.70;100.00;98529.00;10213972;29;20075;-68
2024/02/22 12:25:15;;;;;;;1999.90;999.90;;;;;;;11.65;100.00;98514.69;10214526;29;20066;-68
2024/02/22 12:30:18;;;;;;;1999.90;999.90;;;;;;;11.86;100.00;98488.16;10214837;29;20058;-68
2024/02/22 12:35:21;;;;;;;1999.90;999.90;;;;;;;11.80;100.00;98466.00;10214019;29;20570;-68
2024/02/22 12:40:26;;;;;;;1999.90;999.90;;;;;;;11.95;100.00;98454.97;10214801;29;20058;-68
2024/02/22 12:45:28;;;;;;;1999.90;999.90;;;;;;;11.82;100.00;98443.09;10214476;29;20047;-68
2024/02/22 12:50:30;;;;;;;1999.90;999.90;;;;;;;11.95;100.00;98429.56;10214455;29;20062;-68
2024/02/22 12:55:32;;;;;;;1999.90;999.90;;;;;;;12.04;100.00;98391.13;10219989;29;20044;-68
2024/02/22 13:00:36;;;;;;;1999.90;999.90;;;;;;;12.03;100.00;98365.88;10222234;29;20066;-68
2024/02/22 13:05:38;;;;;;;1999.90;999.90;;;;;;;12.07;100.00;98351.47;10221395;29;20044;-68
2024/02/22 13:10:40;;;;;;;1999.90;999.90;;;;;;;12.17;100.00;98333.81;10221410;29;20051;-68
2024/02/22 13:15:46;;;;;;;1999.90;999.90;;;;;;;12.07;100.00;98322.63;10220982;29;20048;-68
2024/02/22 13:20:48;;;;;;;1999.90;999.90;;;;;;;12.22;100.00;98294.81;10222168;29;20048;-68
2024/02/22 13:25:51;;;;;;;1999.90;999.90;;;;;;;12.57;100.00;98278.97;10221571;29;20107;-68
2024/02/22 13:30:54;;;;;;;1999.90;999.90;;;;;;;12.38;100.00;98236.28;10219361;29;20051;-68
2024/02/22 13:35:56;;;;;;;1999.90;999.90;;;;;;;12.72;100.00;98242.38;10220837;29;20052;-68
2024/02/22 13:41:00;;;;;;;1999.90;999.90;;;;;;;12.38;100.00;98235.47;10221085;29;20060;-68
2024/02/22 13:46:03;;;;;;;1999.90;999.90;;;;;;;12.51;100.00;98213.97;10219325;29;20082;-68
2024/02/22 13:51:06;;;;;;;1999.90;999.90;;;;;;;12.55;100.00;98199.56;10220434;29;20138;-68
2024/02/22 13:56:08;;;;;;;1999.90;999.90;;;;;;;12.60;100.00;98179.72;10220163;29;20050;-68
2024/02/22 14:01:10;;;;;;;1999.90;999.90;;;;;;;12.49;100.00;98153.81;10220057;29;20060;-68
2024/02/22 14:06:13;;;;;;;1999.90;999.90;;;;;;;12.69;100.00;98141.13;10218115;29;20400;-68
2024/02/22 14:11:15;;;;;;;1999.90;999.90;;;;;;;12.59;100.00;98125.59;10219597;29;20052;-68
2024/02/22 14:16:18;;;;;;;1999.90;999.90;;;;;;;12.70;100.00;98116.53;10218143;29;20044;-68
2024/02/22 14:21:21;;;;;;;1999.90;999.90;;;;;;;12.64;100.00;98094.41;10219274;29;20109;-68
2024/02/22 14:26:23;;;;;;;1999.90;999.90;;;;;;;12.46;100.00;98080.66;10218313;29;20587;-68
2024/02/22 14:31:25;;;;;;;1999.90;999.90;;;;;;;12.74;100.00;98046.13;10219095;29;20059;-68
2024/02/22 14:36:28;;;;;;;1999.90;999.90;;;;;;;12.89;100.00;98012.13;10218005;29;20502;-68
2024/02/22 14:41:30;;;;;;;1999.90;999.90;;;;;;;12.89;100.00;97984.03;10218691;29;20135;-68
2024/02/22 14:46:33;;;;;;;1999.90;999.90;;;;;;;12.73;100.00;97960.50;10218312;29;20051;-68
2024/02/22 14:51:35;;;;;;;1999.90;999.90;;;;;;;12.76;100.00;97950.47;10218155;29;20138;-67
2024/02/22 14:56:38;;;;;;;1999.90;999.90;;;;;;;12.57;100.00;97956.94;10217851;29;20139;-67
2024/02/22 15:01:41;;;;;;;1999.90;999.90;;;;;;;12.61;100.00;97932.00;10216562;29;20067;-67
2024/02/22 15:06:44;;;;;;;1999.90;999.90;;;;;;;12.80;100.00;97912.38;10217563;29;20044;-67
2024/02/22 15:11:48;;;;;;;1999.90;999.90;;;;;;;12.65;100.00;97898.34;10216172;29;20059;-67
2024/02/22 15:16:51;;;;;;;1999.90;999.90;;;;;;;12.66;100.00;97871.13;10216805;29;20044;-67
2024/02/22 15:21:54;;;;;;;1999.90;999.90;;;;;;;12.61;100.00;97847.22;10216336;29;20052;-67
2024/02/22 15:26:59;;;;;;;1999.90;999.90;;;;;;;12.75;100.00;97808.91;10215991;29;20066;-67
2024/02/22 15:32:04;;;;;;;1999.90;999.90;;;;;;;12.79;100.00;97813.63;10215978;29;20455;-68
2024/02/22 15:37:08;;;;;;;1999.90;999.90;;;;;;;12.87;100.00;97820.59;10216342;29;20047;-68
2024/02/22 15:42:10;;;;;;;1999.90;999.90;;;;;;;12.86;100.00;97805.88;10215615;29;20388;-68
2024/02/22 15:47:13;;;;;;;1999.90;999.90;;;;;;;12.75;100.00;97793.16;10214917;29;20054;-68
2024/02/22 15:52:15;;;;;;;1999.90;999.90;;;;;;;12.88;100.00;97788.13;10215874;29;20167;-68
2024/02/22 15:57:18;;;;;;;1999.90;999.90;;;;;;;12.87;100.00;97765.47;10215650;29;20047;-68
2024/02/22 16:02:21;;;;;;;1999.90;999.90;;;;;;;12.79;100.00;97742.75;10215569;29;20051;-68
2024/02/22 16:07:23;;;;;;;1999.90;999.90;;;;;;;12.86;100.00;97763.03;10214911;29;20086;-68
2024/02/22 16:12:26;;;;;;;1999.90;999.90;;;;;;;12.89;100.00;97781.06;10214609;29;20056;-68
2024/02/22 16:17:29;;;;;;;1999.90;999.90;;;;;;;12.73;100.00;97766.25;10214270;29;20516;-67
2024/02/22 16:22:31;;;;;;;1999.90;999.90;;;;;;;12.63;100.00;97756.00;10214989;29;20102;-67
2024/02/22 16:27:34;;;;;;;1999.90;999.90;;;;;;;12.79;100.00;97742.75;10213164;29;20047;-67
2024/02/22 16:32:37;;;;;;;1999.90;999.90;;;;;;;12.66;100.00;97752.19;10214761;29;20059;-67
2024/02/22 16:37:40;;;;;;;1999.90;999.90;;;;;;;12.59;100.00;97750.28;10213474;29;20139;-68
2024/02/22 16:42:43;;;;;;;1999.90;999.90;;;;;;;12.86;100.00;97726.25;10214609;29;20060;-68
2024/02/22 16:47:45;;;;;;;1999.90;999.90;;;;;;;12.61;100.00;97708.13;10213882;29;20571;-68
2024/02/22 16:52:48;;;;;;;1999.90;999.90;;;;;;;12.71;100.00;97703.44;10213496;29;20051;-68
2024/02/22 16:57:50;;;;;;;1999.90;999.90;;;;;;;12.66;100.00;97715.44;10213633;29;20543;-68
2024/02/22 17:02:53;;;;;;;1999.90;999.90;;;;;;;12.55;100.00;97703.56;10214277;29;20108;-68
2024/02/22 17:07:55;;;;;;;1999.90;999.90;;;;;;;12.34;100.00;97677.97;10214105;29;20043;-68
2024/02/22 17:12:58;;;;;;;1999.90;999.90;;;;;;;12.14;100.00;97688.94;10213656;29;20048;-68
2024/02/22 17:18:03;;;;;;;1999.90;999.90;;;;;;;11.96;100.00;97586.16;10213606;29;20095;-68
2024/02/22 17:23:06;;;;;;;1999.90;999.90;;;;;;;11.69;100.00;97583.03;10211984;29;20518;-68
2024/02/22 17:28:08;;;;;;;1999.90;999.90;;;;;;;11.70;100.00;97568.91;10213141;29;20051;-68
2024/02/22 17:33:10;;;;;;;1999.90;999.90;;;;;;;11.70;100.00;97595.13;10213096;29;20075;-68
2024/02/22 17:38:13;;;;;;;1999.90;999.90;;;;;;;11.32;100.00;97585.34;10214026;29;20103;-68
2024/02/22 17:43:16;;;;;;;1999.90;999.90;;;;;;;11.28;100.00;97598.94;10220153;29;20058;-68
2024/02/22 17:48:19;;;;;;;1999.90;999.90;;;;;;;11.10;100.00;97596.59;10219361;29;20047;-68
2024/02/22 17:53:21;;;;;;;1999.90;999.90;;;;;;;11.00;100.00;97585.50;10218599;29;20459;-68
2024/02/22 17:58:24;;;;;;;1999.90;999.90;;;;;;;11.12;100.00;97582.31;10220095;29;20047;-68
2024/02/22 18:03:26;;;;;;;1999.90;999.90;;;;;;;11.09;100.00;97553.06;10220155;29;20135;-68
2024/02/22 18:08:29;;;;;;;1999.90;999.90;;;;;;;11.10;100.00;97563.34;10202931;29;20056;-68
2024/02/22 18:13:33;;;;;;;1999.90;999.90;;;;;;;11.09;100.00;97577.41;10219504;29;20106;-68
2024/02/22 18:18:36;;;;;;;1999.90;999.90;;;;;;;11.43;100.00;97592.03;10219342;29;20054;-68
2024/02/22 18:23:41;;;;;;;1999.90;999.90;;;;;;;10.64;100.00;97714.09;10218349;29;20067;-68
2024/02/22 18:28:44;;;;;;;1999.90;999.90;;;;;;;10.12;100.00;97713.38;10217921;29;20048;-67
2024/02/22 18:33:47;;;;;;;1999.90;999.90;;;;;;;9.86;100.00;97676.91;10218138;29;20520;-67
2024/02/22 18:38:49;;;;;;;1999.90;999.90;;;;;;;9.91;100.00;97648.50;10225682;23;20055;-67
2024/02/22 18:43:56;;;;;;;1999.90;999.90;;;;;;;9.83;100.00;97638.00;10217894;29;20059;-67
2024/02/22 18:48:58;;;;;;;1999.90;999.90;;;;;;;9.32;100.00;97638.03;10218294;29;20047;-66
2024/02/22 18:54:01;;;;;;;1999.90;999.90;;;;;;;9.76;100.00;97629.19;10217561;29;20052;-67
2024/02/22 18:59:05;;;;;;;1999.90;999.90;;;;;;;9.38;100.00;97642.66;10217226;29;20051;-66
2024/02/22 19:04:07;;;;;;;1999.90;999.90;;;;;;;9.42;100.00;97646.56;10216606;29;20109;-66
2024/02/22 19:09:10;;;;;;;1999.90;999.90;;;;;;;9.44;100.00;97668.09;10216234;29;20107;-66
2024/02/22 19:14:13;;;;;;;1999.90;999.90;;;;;;;9.34;100.00;97651.75;10217323;29;20056;-66
2024/02/22 19:19:15;;;;;;;1999.90;999.90;;;;;;;9.46;100.00;97654.91;10215814;29;20134;-66
2024/02/22 19:24:19;;;;;;;1999.90;999.90;;;;;;;9.59;100.00;97672.75;10216359;29;20496;-66
2024/02/22 19:29:22;;;;;;;1999.90;999.90;;;;;;;9.38;100.00;97678.34;10216738;29;20079;-66
2024/02/22 19:34:25;;;;;;;1999.90;999.90;;;;;;;9.31;100.00;97696.44;10216505;29;20055;-68
2024/02/22 19:39:28;;;;;;;1999.90;999.90;;;;;;;9.22;100.00;97724.31;10214680;29;20055;-66
2024/02/22 19:44:30;;;;;;;1999.90;999.90;;;;;;;9.32;100.00;97737.25;10216107;29;20055;-66
2024/02/22 19:49:33;;;;;;;1999.90;999.90;;;;;;;9.30;100.00;97755.69;10215966;29;20051;-66
2024/02/22 19:54:37;;;;;;;1999.90;999.90;;;;;;;9.03;100.00;97801.03;10215814;29;20099;-67
2024/02/22 19:59:39;;;;;;;1999.90;999.90;;;;;;;9.02;97.94;97824.66;10214930;29;20492;-67
2024/02/22 20:04:43;;;;;;;1999.90;999.90;;;;;;;8.61;93.70;97835.56;10214005;29;20384;-65
2024/02/22 20:09:46;;;;;;;1999.90;999.90;;;;;;;8.49;93.62;97850.59;10215286;29;20051;-65
2024/02/22 20:14:50;;;;;;;1999.90;999.90;;;;;;;8.45;92.17;97882.31;10214564;29;20135;-66
2024/02/22 20:19:52;;;;;;;1999.90;999.90;;;;;;;8.38;93.24;97888.06;10213209;29;20385;-66
2024/02/22 20:24:55;;;;;;;1999.90;999.90;;;;;;;8.13;98.13;97922.63;10214996;29;20131;-65
2024/02/22 20:29:57;;;;;;;1999.90;999.90;;;;;;;7.93;100.00;97929.66;10214271;29;20483;-65
2024/02/22 20:34:59;;;;;;;1999.90;999.90;;;;;;;7.98;100.00;97912.66;10214242;29;20083;-65
2024/02/22 20:40:11;;;;;;;1999.90;999.90;;;;;;;7.87;100.00;97943.25;10213882;29;20060;-65
2024/02/22 20:45:14;;;;;;;1999.90;999.90;;;;;;;8.01;100.00;97961.06;10214674;29;20079;-65
2024/02/22 20:50:17;;;;;;;1999.90;999.90;;;;;;;7.96;100.00;97958.06;10212977;29;20487;-65
2024/02/22 20:55:20;;;;;;;1999.90;999.90;;;;;;;8.05;100.00;97949.38;10214451;29;20103;-65
2024/02/22 21:00:23;;;;;;;1999.90;999.90;;;;;;;8.04;100.00;97965.19;10214309;29;20054;-65
2024/02/22 21:05:33;;;;;;;1999.90;999.90;;;;;;;8.07;99.81;97970.09;10213135;29;20055;-65
2024/02/22 21:10:36;;;;;;;1999.90;999.90;;;;;;;8.12;99.69;97994.78;10214236;29;20051;-65
2024/02/22 21:15:39;;;;;;;1999.90;999.90;;;;;;;7.97;98.57;98009.22;10218306;29;20061;-64
2024/02/22 21:20:41;;;;;;;1999.90;999.90;;;;;;;7.94;97.33;98010.28;10203939;29;20509;-65
2024/02/22 21:25:44;;;;;;;1999.90;999.90;;;;;;;7.84;97.74;98043.34;10219376;29;20075;-65
2024/02/22 21:30:50;;;;;;;1999.90;999.90;;;;;;;7.97;98.97;98045.69;10219928;29;20103;-66
2024/02/22 21:35:53;;;;;;;1999.90;999.90;;;;;;;8.15;98.80;98064.03;10220259;29;20511;-66
2024/02/22 21:40:56;;;;;;;1999.90;999.90;;;;;;;7.84;97.46;98076.41;10218796;29;20114;-67
2024/02/22 21:46:00;;;;;;;1999.90;999.90;;;;;;;7.77;100.00;98097.78;10219369;29;20051;-67
2024/02/22 21:51:06;;;;;;;1999.90;999.90;;;;;;;7.74;100.00;98099.84;10221029;29;20052;-66
2024/02/22 21:56:09;;;;;;;1999.90;999.90;;;;;;;7.59;100.00;98117.63;10220350;29;20051;-66
2024/02/22 22:01:11;;;;;;;1999.90;999.90;;;;;;;7.78;100.00;98124.63;10220069;29;20107;-65